Time;durP1;ratioP1;P1;durP2;ratioP2;P2;SDS_P1;SDS_P2;PMS_P1;PMS_P2;Temp;Humidity;BMP_temperature;BMP_pressure;BME280_temperature;BME280_humidity;BME280_pressure;Samples;Min_cycle;Max_cycle;Signal;HPM_P1;HPM_P2
2022/11/10 00:01:09;;;;;;;19.77;5.25;;;10.50;99.90;;;10.44;100.00;100550.66;4987387;28;20263;-86
2022/11/10 00:03:39;;;;;;;16.67;4.22;;;10.40;99.90;;;10.50;100.00;100556.03;4992207;28;20636;-87
2022/11/10 00:06:09;;;;;;;18.63;4.85;;;10.40;99.90;;;10.53;100.00;100557.81;4992373;28;20230;-86
2022/11/10 00:08:36;;;;;;;16.67;4.20;;;10.40;99.90;;;10.55;100.00;100562.25;5002086;28;20229;-86
2022/11/10 00:11:06;;;;;;;16.00;4.07;;;10.50;99.90;;;10.66;100.00;100565.00;4988894;28;20271;-87
2022/11/10 00:16:59;;;;;;;14.05;3.92;;;10.60;99.90;;;10.60;100.00;100558.78;4988165;28;20244;-87
2022/11/10 00:19:09;;;;;;;16.15;4.43;;;10.40;99.90;;;10.35;100.00;100562.84;4981791;28;20249;-86
2022/11/10 00:21:36;;;;;;;16.85;4.53;;;10.30;99.90;;;10.34;100.00;100556.69;4989774;28;20241;-86
2022/11/10 00:24:04;;;;;;;15.98;4.25;;;10.30;99.90;;;10.45;100.00;100578.88;4989849;28;20384;-86
2022/11/10 00:26:31;;;;;;;16.63;4.22;;;10.30;99.90;;;10.47;100.00;100577.16;4989379;28;20279;-87
2022/11/10 00:28:58;;;;;;;18.80;4.95;;;10.30;99.90;;;10.43;100.00;100564.75;4992900;28;20228;-86
2022/11/10 00:31:27;;;;;;;15.27;4.20;;;10.30;99.90;;;10.32;100.00;100560.19;4983209;28;20313;-86
2022/11/10 00:33:54;;;;;;;13.45;3.67;;;10.30;99.90;;;10.25;100.00;100556.56;4988309;28;20236;-86
2022/11/10 00:36:22;;;;;;;14.18;4.07;;;10.20;99.90;;;10.31;100.00;100571.63;4988509;28;20255;-86
2022/11/10 00:38:50;;;;;;;11.70;3.30;;;10.20;99.90;;;10.32;100.00;100574.28;4985640;28;20236;-87
2022/11/10 00:41:18;;;;;;;12.43;3.60;;;10.20;99.90;;;10.37;100.00;100576.97;4987039;28;20243;-87
2022/11/10 00:43:45;;;;;;;12.90;3.67;;;10.30;99.90;;;10.26;100.00;100567.16;5006759;28;20302;-86
2022/11/10 00:46:13;;;;;;;12.73;3.50;;;10.20;99.90;;;10.56;100.00;100598.41;4991846;28;20224;-86
2022/11/10 00:48:40;;;;;;;19.67;4.88;;;10.40;99.90;;;10.67;100.00;100608.22;4988441;28;20685;-87
2022/11/10 00:51:16;;;;;;;13.90;3.60;;;10.60;99.90;;;10.42;100.00;100583.25;4981964;28;20232;-87
2022/11/10 00:53:43;;;;;;;13.77;3.78;;;10.40;99.90;;;10.35;100.00;100579.59;4981726;28;20287;-86
2022/11/10 00:56:10;;;;;;;18.73;4.78;;;10.30;99.90;;;10.27;100.00;100578.63;4990568;28;20348;-87
2022/11/10 00:58:37;;;;;;;14.90;3.80;;;10.20;99.90;;;10.18;100.00;100581.13;4987751;28;20231;-86
2022/11/10 01:01:05;;;;;;;18.42;4.97;;;10.20;99.90;;;10.13;100.00;100581.06;4990468;28;20236;-86
2022/11/10 01:03:34;;;;;;;18.55;5.03;;;10.10;99.90;;;9.90;100.00;100575.47;4989812;28;20240;-86
2022/11/10 01:06:14;;;;;;;13.80;3.65;;;9.90;99.90;;;9.78;100.00;100577.94;4989643;28;20256;-86
2022/11/10 01:08:42;;;;;;;16.33;4.28;;;9.80;99.90;;;9.76;100.00;100589.34;5011260;28;20263;-86
2022/11/10 01:11:15;;;;;;;14.00;3.60;;;9.70;99.90;;;9.65;100.00;100598.84;4986858;28;20279;-87
2022/11/10 01:13:44;;;;;;;14.13;3.83;;;9.60;99.90;;;9.72;100.00;100614.81;4982928;28;20243;-87
2022/11/10 01:16:16;;;;;;;20.08;5.13;;;9.60;99.90;;;9.83;100.00;100639.63;4980812;28;20236;-86
2022/11/10 01:18:44;;;;;;;13.10;3.75;;;9.70;99.90;;;9.88;100.00;100639.72;4979581;28;20236;-87
2022/11/10 01:21:11;;;;;;;14.32;3.67;;;9.80;99.90;;;9.89;100.00;100646.78;4985577;28;20232;-87
2022/11/10 01:23:38;;;;;;;16.20;4.15;;;9.80;99.90;;;9.93;100.00;100656.53;4982812;28;20299;-87
2022/11/10 01:26:07;;;;;;;13.00;3.65;;;9.90;99.90;;;9.98;100.00;100659.22;5002184;28;20236;-87
2022/11/10 01:28:35;;;;;;;17.75;4.55;;;9.90;99.90;;;9.93;100.00;100652.13;4982612;28;20315;-86
2022/11/10 01:31:17;;;;;;;16.70;4.22;;;9.90;99.90;;;9.99;100.00;100659.25;4988530;28;20287;-86
2022/11/10 01:33:44;;;;;;;16.95;4.57;;;9.90;99.90;;;9.93;100.00;100656.53;4983018;28;20236;-86
2022/11/10 01:36:12;;;;;;;17.25;4.45;;;9.90;99.90;;;9.87;100.00;100656.44;4983899;28;20228;-87
2022/11/10 01:38:42;;;;;;;15.82;4.07;;;9.80;99.90;;;9.83;100.00;100660.78;4985934;28;20278;-86
2022/11/10 01:41:12;;;;;;;18.50;4.97;;;9.80;99.90;;;9.74;100.00;100657.09;4986236;28;20290;-87
2022/11/10 01:43:40;;;;;;;14.52;3.70;;;9.70;99.90;;;9.71;100.00;100657.94;4986702;28;20236;-86
2022/11/10 01:46:11;;;;;;;17.13;4.20;;;9.70;99.90;;;9.59;100.00;100652.47;4982309;28;20311;-86
2022/11/10 01:49:02;;;;;;;18.00;4.47;;;9.60;99.90;;;9.50;100.00;100650.56;4982450;28;20284;-86
2022/11/10 01:52:11;;;;;;;12.98;3.50;;;9.50;99.90;;;9.35;100.00;100657.31;4979034;28;20228;-85
2022/11/10 01:54:43;;;;;;;13.75;3.67;;;9.30;99.90;;;9.40;100.00;100671.50;4986935;28;20232;-87
2022/11/10 01:57:12;;;;;;;11.73;3.22;;;9.30;99.90;;;9.40;100.00;100668.84;4982529;28;20284;-86
2022/11/10 01:59:45;;;;;;;16.17;4.43;;;9.30;99.90;;;9.49;100.00;100688.38;4986673;28;20228;-87
2022/11/10 02:02:31;;;;;;;13.70;3.70;;;9.40;99.90;;;9.73;100.00;100714.31;4987900;28;20297;-87
2022/11/10 02:05:00;;;;;;;18.60;4.80;;;9.60;99.90;;;9.71;100.00;100705.47;4997713;28;20262;-87
2022/11/10 02:07:30;;;;;;;10.95;3.00;;;9.70;99.90;;;9.64;100.00;100700.94;4985363;28;20263;-87
2022/11/10 02:10:01;;;;;;;15.18;4.05;;;9.60;99.90;;;9.61;100.00;100704.44;4986481;28;20232;-86
2022/11/10 02:12:36;;;;;;;17.48;4.43;;;9.60;99.90;;;9.52;100.00;100692.81;4979572;28;20300;-87
2022/11/10 02:15:05;;;;;;;13.15;3.47;;;9.50;99.90;;;9.47;100.00;100690.09;4994830;28;20280;-87
2022/11/10 02:17:33;;;;;;;16.20;4.05;;;9.40;99.90;;;9.41;100.00;100692.63;4981409;28;20232;-86
2022/11/10 02:20:05;;;;;;;14.85;4.00;;;9.40;99.90;;;9.42;100.00;100712.88;4997629;28;20255;-87
2022/11/10 02:22:32;;;;;;;16.60;4.55;;;9.30;99.90;;;9.33;100.00;100707.44;4988724;28;20232;-87
2022/11/10 02:24:59;;;;;;;14.50;3.95;;;9.30;99.90;;;9.28;100.00;100711.75;4986297;28;20220;-87
2022/11/10 02:27:26;;;;;;;17.58;4.72;;;9.20;99.90;;;9.27;100.00;100717.88;4982452;28;20225;-87
2022/11/10 02:29:54;;;;;;;14.93;4.10;;;9.20;99.90;;;9.09;100.00;100713.13;4985043;28;20248;-86
2022/11/10 02:32:21;;;;;;;20.77;5.80;;;9.10;99.90;;;9.02;100.00;100715.59;4975103;28;20339;-87
2022/11/10 02:34:49;;;;;;;11.48;3.25;;;9.00;99.90;;;9.03;100.00;100735.84;4981869;28;20244;-86
2022/11/10 02:37:16;;;;;;;14.05;3.85;;;9.00;99.90;;;8.91;100.00;100733.84;4987261;28;20298;-86
2022/11/10 02:39:43;;;;;;;12.55;3.40;;;8.90;99.90;;;8.83;100.00;100738.97;4988599;28;20299;-86
2022/11/10 02:42:10;;;;;;;13.27;3.45;;;8.80;99.90;;;8.85;100.00;100746.91;4981621;28;20237;-86
2022/11/10 02:44:41;;;;;;;14.80;3.88;;;8.80;99.90;;;8.64;100.00;100736.81;4984241;28;20257;-86
2022/11/10 02:47:08;;;;;;;15.48;3.95;;;8.70;99.90;;;8.45;100.00;100722.34;4980578;28;20263;-86
2022/11/10 02:49:35;;;;;;;10.68;2.88;;;8.50;99.90;;;8.24;100.00;100727.09;4984307;28;20237;-86
2022/11/10 02:52:03;;;;;;;16.20;3.95;;;8.30;99.90;;;8.11;100.00;100728.56;4977737;28;20748;-86
2022/11/10 02:54:30;;;;;;;18.52;4.60;;;8.20;99.90;;;8.45;100.00;100768.88;4982251;28;20267;-87
2022/11/10 02:56:57;;;;;;;13.73;3.47;;;8.30;99.90;;;8.50;100.00;100776.03;4989583;28;20228;-86
2022/11/10 02:59:24;;;;;;;11.60;3.10;;;8.40;99.90;;;8.43;100.00;100771.47;4985932;28;20237;-87
2022/11/10 03:01:51;;;;;;;10.13;2.80;;;8.40;99.90;;;8.44;100.00;100773.28;4983443;28;20229;-86
2022/11/10 03:04:18;;;;;;;11.00;3.10;;;8.40;99.90;;;8.48;100.00;100782.13;4984213;28;20236;-87
2022/11/10 03:06:45;;;;;;;14.65;3.97;;;8.40;99.90;;;8.31;100.00;100771.16;4982035;28;20267;-87
2022/11/10 03:09:13;;;;;;;11.30;3.17;;;8.30;99.90;;;8.24;100.00;100779.78;4971272;28;20421;-86
2022/11/10 03:11:42;;;;;;;12.15;3.22;;;8.20;99.90;;;7.89;100.00;100750.84;4983195;28;20689;-88
2022/11/10 03:14:09;;;;;;;16.30;4.25;;;8.00;99.90;;;7.82;100.00;100762.06;4984716;28;20236;-89
2022/11/10 03:16:36;;;;;;;17.73;4.47;;;7.90;99.90;;;7.89;100.00;100789.44;4985358;28;20245;-89
2022/11/10 03:19:03;;;;;;;14.93;3.58;;;7.80;99.90;;;7.89;100.00;100779.81;4978486;28;20221;-88
2022/11/10 03:21:30;;;;;;;14.90;3.75;;;7.80;99.90;;;7.78;100.00;100793.53;4986385;28;20294;-88
2022/11/10 03:23:57;;;;;;;11.88;3.17;;;7.80;99.90;;;7.81;100.00;100804.16;4982120;28;20280;-88
2022/11/10 03:26:24;;;;;;;13.63;3.70;;;7.70;99.90;;;7.84;100.00;100804.25;4980947;28;20232;-89
2022/11/10 03:28:51;;;;;;;11.15;3.10;;;7.80;99.90;;;7.81;100.00;100801.53;4981381;28;20283;-88
2022/11/10 03:31:18;;;;;;;11.90;3.28;;;7.80;99.90;;;7.88;100.00;100812.25;4980788;28;20236;-88
2022/11/10 03:33:46;;;;;;;8.35;2.30;;;7.80;99.90;;;7.60;100.00;100786.94;4981473;28;20228;-88
2022/11/10 03:36:13;;;;;;;8.98;2.47;;;7.70;99.90;;;7.57;100.00;100788.59;4993365;28;20240;-88
2022/11/10 03:38:40;;;;;;;16.42;4.60;;;7.60;99.90;;;7.55;100.00;100803.44;4979412;28;20228;-88
2022/11/10 03:41:07;;;;;;;15.93;3.90;;;7.50;99.90;;;7.54;100.00;100812.19;4981818;28;20232;-88
2022/11/10 03:43:52;;;;;;;13.35;3.63;;;7.50;99.90;;;7.35;100.00;100809.06;4981587;28;20331;-89
2022/11/10 03:46:19;;;;;;;19.40;5.10;;;7.30;99.90;;;7.50;100.00;100834.00;4976809;28;20232;-88
2022/11/10 03:48:46;;;;;;;10.30;2.80;;;7.50;99.90;;;7.70;100.00;100862.66;4981366;28;20291;-88
2022/11/10 03:51:20;;;;;;;13.68;3.80;;;7.60;99.90;;;7.87;100.00;100883.31;4989100;28;20305;-88
2022/11/10 03:53:48;;;;;;;12.45;3.50;;;7.70;99.90;;;7.61;100.00;100869.41;4979290;28;20240;-88
2022/11/10 03:56:15;;;;;;;16.42;4.47;;;7.60;99.90;;;7.64;100.00;100880.91;4978298;28;20813;-88
2022/11/10 03:58:42;;;;;;;12.52;3.40;;;7.60;99.90;;;7.75;100.00;100901.38;4982722;28;20295;-87
2022/11/10 04:01:09;;;;;;;30.23;7.93;;;7.70;99.90;;;7.71;100.00;100896.03;4979937;28;20315;-89
2022/11/10 04:03:38;;;;;;;23.15;6.13;;;7.70;99.90;;;7.95;100.00;100913.38;4980936;28;20236;-87
2022/11/10 04:09:03;;;;;;;13.88;3.80;;;7.80;99.90;;;7.83;100.00;100913.06;4982135;28;20212;-87
2022/11/10 04:17:02;;;;;;;12.48;3.10;;;7.80;99.90;;;7.27;100.00;100889.50;4989248;28;20251;-88
2022/11/10 04:19:30;;;;;;;12.00;3.75;;;7.40;99.90;;;7.25;100.00;100904.34;4987058;28;20240;-88
2022/11/10 04:21:57;;;;;;;10.20;2.83;;;7.30;99.90;;;7.30;100.00;100907.13;4989882;28;20232;-88
2022/11/10 04:24:24;;;;;;;8.55;2.45;;;7.30;99.90;;;7.31;100.00;100922.94;4985310;28;20236;-89
2022/11/10 04:26:51;;;;;;;10.13;2.78;;;7.30;99.90;;;7.32;100.00;100923.84;4989910;28;20280;-88
2022/11/10 04:29:19;;;;;;;9.30;2.55;;;7.30;99.90;;;7.37;100.00;100931.03;4989112;28;20268;-88
2022/11/10 04:31:46;;;;;;;9.30;2.60;;;7.30;99.90;;;7.25;100.00;100924.50;4991150;28;20228;-88
2022/11/10 04:34:14;;;;;;;11.30;2.95;;;7.30;99.90;;;7.26;100.00;100942.06;4978313;28;20307;-89
2022/11/10 04:36:43;;;;;;;23.25;5.13;;;7.20;99.90;;;7.28;100.00;100946.53;4980857;28;20228;-89
2022/11/10 04:39:10;;;;;;;17.77;4.20;;;7.30;99.90;;;7.35;100.00;100964.28;4973587;28;20229;-88
2022/11/10 04:41:38;;;;;;;13.13;3.22;;;7.30;99.90;;;7.42;100.00;100967.09;4976587;28;20229;-87
2022/11/10 04:44:05;;;;;;;10.32;2.58;;;7.40;99.90;;;7.31;100.00;100954.50;4989509;28;20240;-87
2022/11/10 04:46:37;;;;;;;14.32;3.63;;;7.30;99.90;;;7.44;100.00;100968.03;4975937;28;20287;-87
2022/11/10 04:49:06;;;;;;;12.50;3.20;;;7.40;99.90;;;7.37;100.00;100972.22;4977300;28;20232;-88
2022/11/10 04:51:36;;;;;;;13.98;3.65;;;7.40;99.90;;;7.44;100.00;100982.09;4984295;28;20225;-87
2022/11/10 04:54:06;;;;;;;13.02;3.38;;;7.30;99.90;;;7.33;100.00;100971.25;4983938;28;20276;-88
2022/11/10 04:56:34;;;;;;;17.08;4.22;;;7.30;99.90;;;7.33;100.00;100981.75;4994789;28;20229;-88
2022/11/10 04:59:01;;;;;;;20.98;5.30;;;7.30;99.90;;;7.34;100.00;100987.91;4981625;28;20244;-88
2022/11/10 05:01:28;;;;;;;16.42;4.28;;;7.30;99.90;;;7.28;100.00;100991.25;4986530;28;20228;-88
2022/11/10 05:03:56;;;;;;;12.38;3.33;;;7.30;99.90;;;7.19;100.00;100977.81;4994119;28;20283;-88
2022/11/10 05:06:23;;;;;;;13.25;3.67;;;7.20;99.90;;;7.15;100.00;100965.41;4961464;28;20232;-89
2022/11/10 05:08:51;;;;;;;11.60;3.45;;;7.20;99.90;;;7.12;100.00;100972.31;4985989;28;20235;-87
2022/11/10 05:11:18;;;;;;;9.77;2.75;;;7.10;99.90;;;7.02;100.00;100968.50;4979145;28;20240;-87
2022/11/10 05:13:45;;;;;;;9.23;2.55;;;7.10;99.90;;;7.01;100.00;100980.75;4984022;28;20283;-88
2022/11/10 05:16:13;;;;;;;9.43;2.55;;;7.00;99.90;;;7.04;100.00;100983.47;4980100;28;20338;-87
2022/11/10 05:18:40;;;;;;;15.30;3.67;;;7.00;99.90;;;6.77;100.00;100972.06;4978521;28;20240;-87
2022/11/10 05:21:08;;;;;;;13.48;3.55;;;6.80;99.90;;;6.71;100.00;100978.03;4981301;28;20232;-86
2022/11/10 05:23:37;;;;;;;16.55;3.97;;;6.80;99.90;;;6.81;100.00;100997.63;4983161;28;20241;-86
2022/11/10 05:26:13;;;;;;;13.50;3.40;;;6.70;99.90;;;6.92;100.00;101014.66;4979977;28;20224;-86
2022/11/10 05:28:43;;;;;;;13.80;3.30;;;6.90;99.90;;;6.97;100.00;101026.22;4981306;28;20229;-86
2022/11/10 05:31:11;;;;;;;13.65;3.28;;;6.90;99.90;;;7.01;100.00;101021.94;4989349;28;20247;-86
2022/11/10 05:33:39;;;;;;;22.10;5.20;;;7.00;99.90;;;7.00;100.00;101025.41;4986201;28;20235;-87
2022/11/10 05:36:06;;;;;;;15.88;3.85;;;6.90;99.90;;;7.03;100.00;101036.94;4982497;28;20228;-86
2022/11/10 05:38:34;;;;;;;14.32;3.83;;;7.00;99.90;;;7.07;100.00;101056.31;4987354;28;20232;-87
2022/11/10 05:41:15;;;;;;;14.40;3.60;;;7.00;99.90;;;7.19;100.00;101066.34;4986272;28;20231;-84
2022/11/10 05:43:42;;;;;;;20.08;4.82;;;7.20;99.90;;;7.21;100.00;101062.94;4984739;28;20266;-83
2022/11/10 05:46:09;;;;;;;17.15;4.22;;;7.20;99.90;;;7.21;100.00;101069.94;4978127;28;20236;-82
2022/11/10 05:48:36;;;;;;;14.13;3.47;;;7.20;99.90;;;7.25;100.00;101080.59;4978540;28;20232;-82
2022/11/10 05:51:03;;;;;;;14.77;3.63;;;7.20;99.90;;;7.29;100.00;101093.00;4981949;28;20295;-83
2022/11/10 05:53:30;;;;;;;17.92;4.22;;;7.30;99.90;;;7.27;100.00;101107.84;4979098;28;20243;-83
2022/11/10 05:55:57;;;;;;;14.55;3.83;;;7.30;99.90;;;7.27;100.00;101120.13;4986927;28;20232;-82
2022/11/10 05:58:27;;;;;;;10.70;2.92;;;7.30;99.90;;;7.27;100.00;101126.28;4981065;28;20227;-83
2022/11/10 06:00:54;;;;;;;8.88;2.35;;;7.30;99.90;;;7.26;100.00;101126.22;4977300;28;20303;-86
2022/11/10 06:03:21;;;;;;;15.65;4.18;;;7.30;99.90;;;7.30;100.00;101131.63;4982644;28;20225;-86
2022/11/10 06:05:49;;;;;;;12.95;3.40;;;7.30;99.90;;;7.24;100.00;101131.44;4982585;28;20224;-85
2022/11/10 06:08:16;;;;;;;16.75;4.43;;;7.30;99.90;;;7.22;100.00;101134.84;4983962;28;20248;-86
2022/11/10 06:10:44;;;;;;;13.80;3.63;;;7.20;99.90;;;7.19;100.00;101137.38;4978451;28;20236;-88
2022/11/10 06:13:11;;;;;;;17.30;4.38;;;7.20;99.90;;;7.14;100.00;101133.69;4999807;28;20228;-87
2022/11/10 06:15:38;;;;;;;11.63;3.05;;;7.20;99.90;;;7.08;100.00;101131.75;4983115;28;20274;-89
2022/11/10 06:18:06;;;;;;;15.68;3.97;;;7.10;99.90;;;7.06;100.00;101138.69;4983119;28;20235;-88
2022/11/10 06:20:33;;;;;;;13.65;3.40;;;7.10;99.90;;;6.93;100.00;101129.50;4986624;28;20229;-88
2022/11/10 06:23:07;;;;;;;13.25;3.22;;;7.00;99.90;;;6.84;100.00;101128.28;4982849;28;20236;-87
2022/11/10 06:25:35;;;;;;;14.13;3.60;;;6.90;99.90;;;6.81;100.00;101128.19;4982527;28;20264;-87
2022/11/10 06:28:04;;;;;;;14.18;3.47;;;6.90;99.90;;;6.70;100.00;101131.31;4983114;28;20760;-87
2022/11/10 06:30:34;;;;;;;11.07;2.75;;;6.80;99.90;;;6.57;100.00;101138.72;5002946;28;20232;-86
2022/11/10 06:33:02;;;;;;;13.00;3.25;;;6.70;99.90;;;6.63;100.00;101163.47;4985786;28;20244;-91
2022/11/10 06:35:29;;;;;;;14.57;3.55;;;6.70;99.90;;;6.81;100.00;101184.28;4987012;28;20697;-89
2022/11/10 06:38:10;;;;;;;11.93;3.05;;;6.80;99.90;;;6.83;100.00;101192.22;4984206;28;20286;-89
2022/11/10 06:40:37;;;;;;;10.02;2.70;;;6.80;99.90;;;6.76;100.00;101195.47;4988968;28;20661;-89
2022/11/10 06:43:04;;;;;;;13.30;3.28;;;6.80;99.90;;;6.80;100.00;101207.88;4987515;28;20229;-90
2022/11/10 06:45:31;;;;;;;13.27;3.38;;;6.70;99.90;;;6.74;100.00;101200.66;4989168;28;20232;-89
2022/11/10 06:48:12;;;;;;;16.98;4.18;;;6.80;99.90;;;6.62;100.00;101197.59;4990754;28;20232;-90
2022/11/10 06:50:40;;;;;;;21.98;5.38;;;6.70;99.90;;;6.74;100.00;101217.34;4980321;28;20228;-90
2022/11/10 06:53:08;;;;;;;10.02;2.67;;;6.70;99.90;;;6.88;100.00;101240.59;4983287;28;20244;-90
2022/11/10 06:55:36;;;;;;;15.00;3.67;;;6.80;99.90;;;6.97;100.00;101259.34;4977582;28;20225;-90
2022/11/10 06:58:03;;;;;;;15.90;3.90;;;6.90;99.90;;;6.95;100.00;101253.13;5000112;28;20236;-92
2022/11/10 07:00:30;;;;;;;18.63;4.50;;;7.00;99.90;;;6.98;100.00;101256.78;5005238;28;20263;-90
2022/11/10 07:03:12;;;;;;;14.05;3.58;;;7.00;99.90;;;7.07;100.00;101275.53;4984943;28;20232;-89
2022/11/10 07:05:39;;;;;;;12.63;3.10;;;7.10;99.90;;;7.25;100.00;101290.19;4979851;28;20248;-89
2022/11/10 07:08:15;;;;;;;19.30;4.85;;;7.20;99.90;;;7.32;100.00;101297.44;4976815;28;20235;-87
2022/11/10 07:10:50;;;;;;;15.55;3.88;;;7.30;99.90;;;7.31;100.00;101293.94;4986312;28;20303;-87
2022/11/10 07:13:17;;;;;;;10.98;2.90;;;7.30;99.90;;;7.31;100.00;101296.56;4997360;28;20311;-88
2022/11/10 07:15:45;;;;;;;12.85;3.35;;;7.30;99.90;;;7.27;100.00;101293.75;4982858;28;20237;-87
2022/11/10 07:18:12;;;;;;;19.17;4.80;;;7.30;99.90;;;7.23;100.00;101294.50;4979569;28;20236;-88
2022/11/10 07:20:40;;;;;;;14.75;3.60;;;7.30;99.90;;;7.17;100.00;101286.38;4986199;28;20228;-87
2022/11/10 07:23:08;;;;;;;18.48;4.63;;;7.20;99.90;;;7.18;100.00;101290.81;4999399;28;20236;-87
2022/11/10 07:25:36;;;;;;;15.40;3.83;;;7.20;99.90;;;7.17;100.00;101294.28;4987974;28;20217;-87
2022/11/10 07:28:09;;;;;;;16.63;4.00;;;7.20;99.90;;;7.21;100.00;101302.31;4989459;28;20700;-87
2022/11/10 07:30:36;;;;;;;13.60;3.72;;;7.20;99.90;;;7.36;100.00;101323.03;4980376;28;20232;-88
2022/11/10 07:33:22;;;;;;;15.07;3.78;;;7.30;99.90;;;7.41;100.00;101310.94;4988144;28;20247;-87
2022/11/10 07:35:56;;;;;;;10.80;2.92;;;7.30;99.90;;;7.41;100.00;101328.47;4989645;28;20228;-87
2022/11/10 07:38:23;;;;;;;12.02;3.25;;;7.40;99.90;;;7.51;100.00;101330.59;4977735;28;20271;-88
2022/11/10 07:40:52;;;;;;;12.57;3.42;;;7.50;99.90;;;7.59;100.00;101339.66;4982184;28;20232;-89
2022/11/10 07:43:21;;;;;;;11.60;3.10;;;7.50;99.90;;;7.65;100.00;101358.28;4985381;28;20241;-87
2022/11/10 07:45:50;;;;;;;12.30;3.42;;;7.60;99.90;;;7.69;100.00;101366.34;4979319;28;20763;-87
2022/11/10 07:48:18;;;;;;;11.57;3.25;;;7.70;99.90;;;7.76;100.00;101372.72;4971462;28;20239;-87
2022/11/10 07:50:46;;;;;;;16.40;4.35;;;7.70;99.90;;;7.76;100.00;101370.09;4981786;28;20236;-86
2022/11/10 07:53:18;;;;;;;15.73;4.18;;;7.80;99.90;;;7.81;100.00;101381.72;4981521;28;20295;-87
2022/11/10 07:55:47;;;;;;;10.88;2.95;;;7.70;99.90;;;7.83;100.00;101382.66;4981468;28;20237;-88
2022/11/10 07:58:17;;;;;;;13.25;3.50;;;7.80;99.90;;;7.93;100.00;101394.41;4982603;28;20240;-87
2022/11/10 08:00:46;;;;;;;10.52;2.85;;;7.90;99.90;;;7.98;100.00;101398.13;4980462;28;20697;-88
2022/11/10 08:03:17;;;;;;;9.50;2.67;;;7.90;99.90;;;8.15;100.00;101414.50;4979121;28;20295;-88
2022/11/10 08:05:45;;;;;;;10.48;2.90;;;8.10;99.90;;;8.31;100.00;101432.63;4977819;28;20279;-88
2022/11/10 08:08:13;;;;;;;20.98;5.40;;;8.20;99.90;;;8.38;100.00;101437.28;4981476;28;20226;-88
2022/11/10 08:10:40;;;;;;;19.98;5.28;;;8.30;99.90;;;8.51;100.00;101446.50;4980197;28;20459;-87
2022/11/10 08:13:11;;;;;;;10.73;2.70;;;8.40;99.90;;;8.50;100.00;101442.97;4975999;28;20241;-88
2022/11/10 08:15:39;;;;;;;11.32;2.80;;;8.50;99.90;;;8.71;100.00;101461.25;4975605;28;20292;-88
2022/11/10 08:18:21;;;;;;;12.43;3.25;;;8.60;99.90;;;8.68;100.00;101454.97;4977542;28;20233;-88
2022/11/10 08:20:48;;;;;;;11.38;3.20;;;8.60;99.90;;;8.78;100.00;101467.63;4994783;28;20240;-87
2022/11/10 08:23:16;;;;;;;8.50;3.00;;;8.70;99.90;;;8.86;100.00;101474.94;4986374;28;20254;-88
2022/11/10 08:25:45;;;;;;;10.57;2.90;;;8.80;99.90;;;8.94;100.00;101475.19;4986219;28;20252;-87
2022/11/10 08:28:18;;;;;;;9.98;2.72;;;8.90;99.90;;;9.09;100.00;101491.50;4982309;28;20247;-89
2022/11/10 08:30:47;;;;;;;11.82;3.33;;;9.00;99.90;;;9.22;100.00;101499.00;4985817;28;20232;-88
2022/11/10 08:33:17;;;;;;;13.38;3.55;;;9.10;99.90;;;9.39;100.00;101502.16;4985108;28;20232;-88
2022/11/10 08:35:47;;;;;;;9.88;2.75;;;9.30;99.90;;;9.40;100.00;101493.38;4988122;28;20228;-88
2022/11/10 08:38:19;;;;;;;11.70;3.22;;;9.40;99.90;;;9.56;100.00;101508.84;4984632;28;20236;-89
2022/11/10 08:40:46;;;;;;;10.57;3.08;;;9.50;99.90;;;9.74;100.00;101520.81;4984994;28;20545;-88
2022/11/10 08:43:15;;;;;;;8.68;2.45;;;9.60;99.90;;;9.72;100.00;101510.19;4985963;28;20248;-88
2022/11/10 08:45:43;;;;;;;11.43;2.85;;;9.70;99.90;;;9.80;100.00;101513.06;4972324;28;20260;-88
2022/11/10 08:48:18;;;;;;;13.85;3.47;;;10.10;99.90;;;9.77;100.00;101510.34;4974382;28;20449;-88
2022/11/10 08:50:48;;;;;;;8.70;2.50;;;9.80;99.90;;;9.88;100.00;101516.81;4982799;28;20236;-89
2022/11/10 08:53:19;;;;;;;14.05;3.88;;;9.80;99.90;;;9.97;100.00;101518.84;4982331;28;20236;-88
2022/11/10 08:55:48;;;;;;;11.10;3.08;;;9.90;99.90;;;10.05;100.00;101525.22;4985735;28;20228;-89
2022/11/10 08:58:20;;;;;;;9.57;2.72;;;10.00;99.90;;;10.16;100.00;101521.16;4972998;28;20224;-89
2022/11/10 09:00:48;;;;;;;9.15;2.60;;;10.10;99.90;;;10.31;100.00;101526.00;4985040;28;20320;-88
2022/11/10 09:03:18;;;;;;;11.88;3.28;;;10.20;99.90;;;10.30;100.00;101519.81;4986421;28;20228;-87
2022/11/10 09:05:47;;;;;;;9.30;2.60;;;10.20;99.90;;;10.42;100.00;101535.16;4983492;28;20299;-88
2022/11/10 09:08:19;;;;;;;9.13;2.63;;;10.30;99.90;;;10.59;100.00;101544.44;4984568;28;20296;-88
2022/11/10 09:10:49;;;;;;;16.15;4.28;;;10.40;99.90;;;10.61;100.00;101536.53;4973949;28;20294;-89
2022/11/10 09:13:20;;;;;;;10.45;2.90;;;10.50;99.90;;;10.59;100.00;101528.56;4996908;28;20232;-88
2022/11/10 09:16:00;;;;;;;8.23;2.30;;;10.50;99.90;;;10.78;100.00;101540.50;4981631;28;20232;-85
2022/11/10 09:18:28;;;;;;;13.10;3.38;;;10.60;99.90;;;10.82;100.00;101532.69;4976968;28;20224;-86
2022/11/10 09:20:55;;;;;;;7.22;2.15;;;10.70;99.90;;;10.85;100.00;101532.78;4974765;28;20232;-86
2022/11/10 09:23:23;;;;;;;8.43;2.40;;;10.80;99.90;;;10.84;100.00;101532.72;4987517;28;20627;-86
2022/11/10 09:25:54;;;;;;;18.13;4.82;;;10.80;99.90;;;10.88;100.00;101526.66;4978574;28;20252;-85
2022/11/10 09:28:22;;;;;;;12.15;3.25;;;10.80;99.90;;;11.14;100.00;101546.72;4986276;28;20298;-86
2022/11/10 09:30:51;;;;;;;14.77;4.13;;;11.00;99.90;;;11.08;100.00;101538.63;4973953;28;20330;-87
2022/11/10 09:33:19;;;;;;;10.48;2.92;;;10.60;99.90;;;11.13;100.00;101536.09;4971184;28;20693;-85
2022/11/10 09:35:47;;;;;;;13.30;3.78;;;11.00;99.90;;;11.13;100.00;101526.41;4966986;28;20228;-86
2022/11/10 09:38:14;;;;;;;17.55;4.90;;;11.10;99.90;;;11.38;100.00;101549.06;4979271;28;20298;-83
2022/11/10 09:41:01;;;;;;;10.23;2.85;;;11.20;99.90;;;11.36;100.00;101540.19;4978692;28;20241;-84
2022/11/10 09:44:05;;;;;;;15.40;4.05;;;11.20;99.90;;;11.61;100.00;101554.00;4985367;28;20343;-86
2022/11/10 09:46:44;;;;;;;18.05;4.78;;;11.40;99.90;;;11.60;100.00;101547.78;4979642;28;20282;-87
2022/11/10 09:49:39;;;;;;;26.83;7.03;;;11.40;99.90;;;11.89;100.00;101553.81;4971862;28;20236;-86
2022/11/10 09:52:10;;;;;;;30.35;7.68;;;11.70;99.90;;;11.70;100.00;101533.94;4985774;28;20235;-87
2022/11/10 09:55:15;;;;;;;17.40;4.60;;;11.60;99.90;;;11.81;100.00;101529.78;4985352;28;20255;-87
2022/11/10 09:57:43;;;;;;;11.13;3.13;;;11.70;99.90;;;11.88;100.00;101519.31;4981092;28;20228;-88
2022/11/10 10:00:17;;;;;;;11.45;3.25;;;11.70;99.90;;;12.16;100.00;101548.19;4985572;28;20235;-87
2022/11/10 10:02:59;;;;;;;14.43;3.92;;;11.90;99.90;;;12.02;100.00;101525.78;4990928;28;20243;-88
2022/11/10 10:05:54;;;;;;;13.60;3.70;;;11.90;99.90;;;12.15;100.00;101541.97;4984607;28;20232;-87
2022/11/10 10:08:43;;;;;;;8.48;2.40;;;12.00;99.90;;;12.15;100.00;101528.72;4981206;28;20287;-87
2022/11/10 10:11:26;;;;;;;14.43;3.67;;;12.00;99.90;;;12.20;100.00;101522.63;4997570;28;20259;-87
2022/11/10 10:14:18;;;;;;;15.23;4.10;;;12.10;99.90;;;12.26;100.00;101515.66;4980610;28;20228;-87
2022/11/10 10:17:21;;;;;;;16.52;4.63;;;12.20;99.90;;;12.56;100.00;101538.34;4974314;28;20232;-87
2022/11/10 10:20:24;;;;;;;17.98;4.72;;;12.30;99.90;;;12.59;100.00;101533.97;4927626;28;20224;-87
2022/11/10 10:23:00;;;;;;;15.98;4.30;;;12.40;99.90;;;12.70;100.00;101524.44;4964746;28;20232;-88
2022/11/10 10:25:28;;;;;;;14.68;4.03;;;12.60;99.90;;;12.75;100.00;101532.50;4978719;28;20235;-87
2022/11/10 10:28:19;;;;;;;12.35;3.47;;;12.60;99.90;;;12.83;100.00;101522.91;4981814;28;20267;-87
2022/11/10 10:30:48;;;;;;;17.98;5.03;;;12.60;99.90;;;12.74;100.00;101528.94;4979074;28;20235;-87
2022/11/10 10:33:21;;;;;;;8.10;2.38;;;12.60;99.90;;;12.95;100.00;101541.69;4980601;28;20232;-87
2022/11/10 10:35:49;;;;;;;9.63;2.83;;;12.70;99.90;;;12.96;100.00;101526.66;4981068;28;20339;-86